Time;durP1;ratioP1;P1;durP2;ratioP2;P2;SDS_P1;SDS_P2;PMS_P1;PMS_P2;Temp;Humidity;BMP_temperature;BMP_pressure;BME280_temperature;BME280_humidity;BME280_pressure;Samples;Min_cycle;Max_cycle;Signal;HPM_P1;HPM_P2
2022/07/11 00:02:16;;;;;;;;;;;18.30;99.90;;;;;;8381401;28;20402;-76
2022/07/11 00:06:17;;;;;;;;;;;18.30;99.90;;;;;;8371083;28;20375;-76
2022/07/11 00:10:19;;;;;;;;;;;18.30;99.90;;;;;;8373482;28;19924;-76
2022/07/11 00:14:21;;;;;;;;;;;18.30;99.90;;;;;;8367039;28;20265;-76
2022/07/11 00:18:23;;;;;;;;;;;18.30;99.90;;;;;;8378248;28;19927;-76
2022/07/11 00:22:25;;;;;;;;;;;18.30;99.90;;;;;;8369020;28;20043;-76
2022/07/11 00:26:27;;;;;;;;;;;18.30;99.90;;;;;;8376408;28;19924;-75
2022/07/11 00:30:28;;;;;;;;;;;18.30;99.90;;;;;;8367712;28;20371;-76
2022/07/11 00:34:30;;;;;;;;;;;18.30;99.90;;;;;;8381416;28;20308;-76
2022/07/11 00:38:32;;;;;;;;;;;18.30;99.90;;;;;;8370720;28;19921;-76
2022/07/11 00:42:33;;;;;;;;;;;18.30;99.90;;;;;;8389362;28;19976;-76
2022/07/11 00:46:35;;;;;;;;;;;18.30;99.90;;;;;;8390532;28;19927;-76
2022/07/11 00:50:37;;;;;;;;;;;18.30;99.90;;;;;;8395508;28;19928;-75
2022/07/11 00:54:40;;;;;;;;;;;18.30;99.90;;;;;;8381766;28;20213;-76
2022/07/11 00:58:42;;;;;;;;;;;18.40;99.90;;;;;;8363348;28;19928;-76
2022/07/11 01:02:44;;;;;;;;;;;18.40;99.90;;;;;;8380389;28;19976;-76
2022/07/11 01:06:45;;;;;;;;;;;18.40;99.90;;;;;;8375281;28;19967;-76
2022/07/11 01:10:47;;;;;;;;;;;18.40;99.90;;;;;;8366880;28;19929;-76
2022/07/11 01:14:52;;;;;;;;;;;18.40;99.90;;;;;;8379228;28;19928;-76
2022/07/11 01:18:54;;;;;;;;;;;18.40;99.90;;;;;;8386409;28;19947;-76
2022/07/11 01:23:05;;;;;;;;;;;18.50;99.90;;;;;;8376516;28;19925;-76
2022/07/11 01:27:07;;;;;;;;;;;18.50;99.90;;;;;;8381910;28;19959;-76
2022/07/11 01:31:09;;;;;;;;;;;18.50;99.90;;;;;;8370515;28;19925;-76
2022/07/11 01:35:11;;;;;;;;;;;18.50;99.90;;;;;;8399506;28;20638;-76
2022/07/11 01:39:12;;;;;;;;;;;18.50;99.90;;;;;;8382792;28;19948;-76
2022/07/11 01:43:14;;;;;;;;;;;18.40;99.90;;;;;;8365236;28;19929;-76
2022/07/11 01:47:15;;;;;;;;;;;18.40;99.90;;;;;;8379328;28;20051;-76
2022/07/11 01:51:17;;;;;;;;;;;18.40;99.90;;;;;;8384023;28;19936;-76
2022/07/11 01:55:19;;;;;;;;;;;18.40;99.90;;;;;;8379746;28;19928;-76
2022/07/11 01:59:21;;;;;;;;;;;18.40;99.90;;;;;;8364720;28;19935;-75
2022/07/11 02:03:23;;;;;;;;;;;18.40;99.90;;;;;;8363929;28;19924;-76
2022/07/11 02:11:44;;;;;;;;;;;18.40;99.90;;;;;;8367560;28;19928;-75
2022/07/11 02:15:47;;;;;;;;;;;18.40;99.90;;;;;;8375336;28;19929;-76
2022/07/11 02:19:49;;;;;;;;;;;18.30;99.90;;;;;;8367214;28;19984;-76
2022/07/11 02:23:51;;;;;;;;;;;18.40;99.90;;;;;;8373001;28;19929;-76
2022/07/11 02:27:52;;;;;;;;;;;18.30;99.90;;;;;;8376630;28;19929;-75
2022/07/11 02:31:54;;;;;;;;;;;18.30;99.90;;;;;;8383175;28;19925;-76
2022/07/11 02:35:56;;;;;;;;;;;18.30;99.90;;;;;;8351761;28;19932;-76
2022/07/11 02:39:57;;;;;;;;;;;18.30;99.90;;;;;;8390176;28;20272;-75
2022/07/11 02:43:59;;;;;;;;;;;18.30;99.90;;;;;;8384013;28;19924;-76
2022/07/11 02:48:01;;;;;;;;;;;18.30;99.90;;;;;;8381444;28;19925;-75
2022/07/11 02:52:02;;;;;;;;;;;18.30;99.90;;;;;;8372883;28;19932;-75
2022/07/11 02:56:06;;;;;;;;;;;18.30;99.90;;;;;;8384288;28;19978;-75
2022/07/11 03:00:09;;;;;;;;;;;18.30;99.90;;;;;;8374415;28;19935;-76
2022/07/11 03:04:12;;;;;;;;;;;18.30;99.90;;;;;;8376277;28;19950;-76
2022/07/11 03:08:14;;;;;;;;;;;18.30;99.90;;;;;;8366138;28;19925;-75
2022/07/11 03:12:15;;;;;;;;;;;18.20;99.90;;;;;;8368495;28;19924;-76
2022/07/11 03:16:17;;;;;;;;;;;18.20;99.90;;;;;;8385070;28;19929;-76
2022/07/11 03:20:19;;;;;;;;;;;18.20;99.90;;;;;;8376403;28;19963;-76
2022/07/11 03:24:20;;;;;;;;;;;18.10;99.90;;;;;;8371442;28;19925;-76
2022/07/11 03:28:22;;;;;;;;;;;18.10;99.90;;;;;;8385674;28;19932;-76
2022/07/11 03:32:24;;;;;;;;;;;18.10;99.90;;;;;;8365499;28;19925;-76
2022/07/11 03:36:29;;;;;;;;;;;18.00;99.90;;;;;;8374326;28;20009;-76
2022/07/11 03:40:31;;;;;;;;;;;18.00;99.90;;;;;;8380883;28;19932;-75
2022/07/11 03:44:32;;;;;;;;;;;17.90;99.90;;;;;;8391425;28;19933;-75
2022/07/11 03:48:34;;;;;;;;;;;17.90;99.90;;;;;;8371160;28;19932;-75
2022/07/11 03:52:36;;;;;;;;;;;17.90;99.90;;;;;;8375025;28;19933;-75
2022/07/11 03:56:37;;;;;;;;;;;17.90;99.90;;;;;;8380683;28;19931;-76
2022/07/11 04:00:39;;;;;;;;;;;17.90;99.90;;;;;;8379316;28;19925;-76
2022/07/11 04:04:41;;;;;;;;;;;17.90;99.90;;;;;;8378101;28;20406;-76
2022/07/11 04:08:42;;;;;;;;;;;17.90;99.90;;;;;;8382660;28;19925;-75
2022/07/11 04:12:44;;;;;;;;;;;17.80;99.90;;;;;;8374002;28;19940;-75
2022/07/11 04:16:46;;;;;;;;;;;17.80;99.90;;;;;;8379428;28;19955;-76
2022/07/11 04:20:49;;;;;;;;;;;17.80;99.90;;;;;;8378723;28;19928;-76
2022/07/11 04:24:50;;;;;;;;;;;17.80;99.90;;;;;;8375281;28;19939;-76
2022/07/11 04:28:52;;;;;;;;;;;17.90;99.90;;;;;;8370108;28;19929;-76
2022/07/11 04:32:54;;;;;;;;;;;17.90;99.90;;;;;;8384562;28;20458;-75
2022/07/11 04:36:56;;;;;;;;;;;17.90;99.90;;;;;;8364533;28;20544;-76
2022/07/11 04:40:58;;;;;;;;;;;17.90;99.90;;;;;;8383832;28;20371;-75
2022/07/11 04:44:59;;;;;;;;;;;17.90;99.90;;;;;;8387053;28;20376;-76
2022/07/11 04:49:01;;;;;;;;;;;18.00;99.90;;;;;;8359482;28;20399;-76
2022/07/11 04:53:03;;;;;;;;;;;18.00;99.90;;;;;;8374542;28;19947;-76
2022/07/11 04:57:05;;;;;;;;;;;18.00;99.90;;;;;;8378947;28;19932;-74
2022/07/11 05:01:06;;;;;;;;;;;18.00;99.90;;;;;;8374540;28;19936;-75
2022/07/11 05:05:08;;;;;;;;;;;17.90;99.90;;;;;;8373079;28;20936;-76
2022/07/11 05:09:11;;;;;;;;;;;17.90;99.90;;;;;;8377882;28;19939;-75
2022/07/11 05:13:12;;;;;;;;;;;17.90;99.90;;;;;;8372254;28;19940;-77
2022/07/11 05:17:14;;;;;;;;;;;18.00;99.90;;;;;;8385271;28;19928;-76
2022/07/11 05:21:21;;;;;;;;;;;18.00;99.90;;;;;;8401358;28;20303;-76
2022/07/11 05:25:23;;;;;;;;;;;18.00;99.90;;;;;;8382466;28;19928;-76
2022/07/11 05:29:25;;;;;;;;;;;18.00;99.90;;;;;;8381451;28;19952;-76
2022/07/11 05:33:28;;;;;;;;;;;18.00;99.90;;;;;;8382429;28;20252;-76
2022/07/11 05:37:30;;;;;;;;;;;18.00;99.90;;;;;;8400037;28;20004;-75
2022/07/11 05:41:32;;;;;;;;;;;18.10;99.90;;;;;;8411589;28;19932;-76
2022/07/11 05:45:34;;;;;;;;;;;18.10;99.90;;;;;;8360906;28;19931;-76
2022/07/11 05:49:35;;;;;;;;;;;18.10;99.90;;;;;;8379072;28;19940;-76
2022/07/11 05:53:37;;;;;;;;;;;18.10;99.90;;;;;;8361215;28;19929;-76
2022/07/11 05:57:39;;;;;;;;;;;18.10;99.90;;;;;;8364530;28;20323;-76
2022/07/11 06:01:40;;;;;;;;;;;18.00;99.90;;;;;;8364926;28;19924;-76
2022/07/11 06:05:42;;;;;;;;;;;18.00;99.90;;;;;;8372400;28;19979;-76
2022/07/11 06:09:44;;;;;;;;;;;18.00;99.90;;;;;;8386612;28;19935;-76
2022/07/11 06:13:45;;;;;;;;;;;18.10;99.90;;;;;;8368985;28;19929;-75
2022/07/11 06:17:47;;;;;;;;;;;18.10;99.90;;;;;;8372079;28;19963;-76
2022/07/11 06:21:49;;;;;;;;;;;18.10;99.90;;;;;;8375478;28;19994;-76
2022/07/11 06:25:50;;;;;;;;;;;18.20;99.90;;;;;;8375808;28;19950;-76
2022/07/11 06:29:52;;;;;;;;;;;18.20;99.90;;;;;;8364039;28;19937;-76
2022/07/11 06:33:57;;;;;;;;;;;18.30;99.90;;;;;;8361434;28;19940;-76
2022/07/11 06:37:59;;;;;;;;;;;18.30;99.90;;;;;;8359733;28;19928;-76
2022/07/11 06:42:01;;;;;;;;;;;18.30;99.90;;;;;;8360866;28;19928;-75
2022/07/11 06:46:03;;;;;;;;;;;18.30;99.90;;;;;;8362559;28;19929;-76
2022/07/11 06:50:05;;;;;;;;;;;18.40;99.90;;;;;;8364536;28;19929;-76
2022/07/11 06:54:06;;;;;;;;;;;18.40;99.90;;;;;;8361362;28;20257;-76
2022/07/11 06:58:08;;;;;;;;;;;18.40;99.90;;;;;;8360215;28;19964;-76
2022/07/11 07:02:29;;;;;;;;;;;18.40;99.90;;;;;;8361112;28;19932;-76
2022/07/11 07:06:31;;;;;;;;;;;18.50;99.90;;;;;;8368510;28;19943;-76
2022/07/11 07:10:33;;;;;;;;;;;18.60;99.90;;;;;;8367930;28;20395;-76
2022/07/11 07:14:35;;;;;;;;;;;18.60;99.90;;;;;;8359271;28;19947;-76
2022/07/11 07:18:38;;;;;;;;;;;18.60;99.90;;;;;;8369880;28;19925;-76
2022/07/11 07:22:41;;;;;;;;;;;18.50;99.90;;;;;;8369015;28;19994;-76
2022/07/11 07:26:43;;;;;;;;;;;18.50;99.90;;;;;;8368199;28;19924;-76
2022/07/11 07:30:45;;;;;;;;;;;18.50;99.90;;;;;;8369924;28;20018;-76
2022/07/11 07:34:47;;;;;;;;;;;18.60;99.90;;;;;;8371035;28;19924;-76
2022/07/11 07:38:49;;;;;;;;;;;18.70;99.90;;;;;;8379866;28;20300;-76
2022/07/11 07:42:50;;;;;;;;;;;18.80;99.90;;;;;;8369814;28;19925;-76
2022/07/11 07:46:52;;;;;;;;;;;18.80;99.90;;;;;;8370214;28;19971;-76
2022/07/11 07:50:54;;;;;;;;;;;18.80;99.90;;;;;;8366293;28;19932;-76
2022/07/11 07:54:55;;;;;;;;;;;18.80;99.90;;;;;;8370707;28;19929;-76
2022/07/11 07:58:57;;;;;;;;;;;18.80;99.90;;;;;;8368750;28;19925;-76
2022/07/11 08:03:08;;;;;;;;;;;18.90;99.90;;;;;;8367904;28;19944;-76
2022/07/11 08:07:10;;;;;;;;;;;18.90;99.90;;;;;;8367727;28;19932;-77
2022/07/11 08:11:12;;;;;;;;;;;19.00;99.90;;;;;;8364748;28;19932;-76
2022/07/11 08:15:31;;;;;;;;;;;19.00;99.90;;;;;;8374653;28;19936;-76
2022/07/11 08:19:33;;;;;;;;;;;19.00;99.90;;;;;;8385375;28;19939;-76
2022/07/11 08:23:35;;;;;;;;;;;19.00;99.90;;;;;;8365544;28;20353;-76
2022/07/11 08:27:37;;;;;;;;;;;19.00;99.90;;;;;;8370252;28;19925;-76
2022/07/11 08:31:41;;;;;;;;;;;19.10;99.90;;;;;;8368517;28;19925;-76
2022/07/11 08:35:43;;;;;;;;;;;19.20;99.90;;;;;;8370386;28;19932;-76
2022/07/11 08:39:44;;;;;;;;;;;19.30;99.90;;;;;;8369722;28;19937;-76
2022/07/11 08:43:48;;;;;;;;;;;19.30;99.90;;;;;;8382031;28;19951;-76
2022/07/11 08:47:52;;;;;;;;;;;19.40;99.90;;;;;;8369659;28;20350;-76
2022/07/11 08:51:55;;;;;;;;;;;19.40;99.90;;;;;;8368455;28;19955;-76
2022/07/11 08:55:57;;;;;;;;;;;19.40;99.90;;;;;;8374573;28;19979;-76
2022/07/11 08:59:59;;;;;;;;;;;19.40;99.90;;;;;;8371869;28;19928;-75
2022/07/11 09:04:01;;;;;;;;;;;19.40;99.90;;;;;;8376812;28;19936;-76
2022/07/11 09:08:03;;;;;;;;;;;19.50;99.90;;;;;;8378341;28;19929;-76
2022/07/11 09:12:14;;;;;;;;;;;19.60;99.90;;;;;;8384836;28;19929;-76
2022/07/11 09:16:17;;;;;;;;;;;19.70;99.90;;;;;;8375515;28;20379;-76
2022/07/11 09:20:19;;;;;;;;;;;19.70;99.90;;;;;;8376530;28;19928;-76
2022/07/11 09:29:24;;;;;;;;;;;19.80;99.90;;;;;;8374697;28;19931;-76
2022/07/11 09:33:26;;;;;;;;;;;19.90;99.90;;;;;;8356628;28;20349;-76
2022/07/11 09:37:41;;;;;;;;;;;19.90;99.90;;;;;;8371506;28;19924;-75
2022/07/11 09:41:43;;;;;;;;;;;19.90;99.90;;;;;;8371136;28;19924;-76
2022/07/11 09:45:45;;;;;;;;;;;19.90;99.90;;;;;;8372596;28;20391;-76
2022/07/11 09:49:46;;;;;;;;;;;19.90;99.90;;;;;;8372577;28;19928;-75
2022/07/11 09:53:58;;;;;;;;;;;19.90;99.90;;;;;;8374265;28;20414;-76
2022/07/11 09:58:02;;;;;;;;;;;19.90;99.90;;;;;;8365175;28;19933;-76
2022/07/11 10:02:14;;;;;;;;;;;19.90;99.90;;;;;;8373184;28;19940;-76
2022/07/11 10:06:16;;;;;;;;;;;19.90;99.90;;;;;;8375581;28;20158;-76
2022/07/11 10:10:18;;;;;;;;;;;19.90;99.90;;;;;;8370292;28;19940;-76
2022/07/11 10:14:19;;;;;;;;;;;20.00;99.90;;;;;;8373178;28;19932;-76
2022/07/11 10:18:27;;;;;;;;;;;20.00;99.90;;;;;;8372590;28;20287;-76
2022/07/11 10:22:33;;;;;;;;;;;20.10;99.90;;;;;;8367735;28;19983;-76
2022/07/11 10:26:35;;;;;;;;;;;20.10;99.90;;;;;;8372514;28;20289;-76
2022/07/11 10:30:44;;;;;;;;;;;20.10;99.90;;;;;;8371853;28;20280;-76
2022/07/11 10:34:52;;;;;;;;;;;20.20;99.90;;;;;;8373149;28;20376;-76
2022/07/11 10:39:13;;;;;;;;;;;20.10;99.90;;;;;;8371905;28;20358;-76
2022/07/11 10:43:30;;;;;;;;;;;20.20;99.90;;;;;;8355250;28;19939;-76
2022/07/11 10:47:41;;;;;;;;;;;20.20;99.90;;;;;;8375773;28;19935;-76
2022/07/11 10:51:59;;;;;;;;;;;20.30;99.90;;;;;;8370633;28;19933;-76
2022/07/11 10:56:37;;;;;;;;;;;20.30;99.90;;;;;;8372422;28;20303;-76
2022/07/11 11:01:12;;;;;;;;;;;20.30;99.90;;;;;;8371002;28;19976;-76
2022/07/11 11:05:34;;;;;;;;;;;20.40;99.90;;;;;;8371124;28;19986;-76
2022/07/11 11:09:36;;;;;;;;;;;20.40;99.90;;;;;;8371779;28;19939;-76
2022/07/11 11:13:42;;;;;;;;;;;20.50;99.90;;;;;;8370341;28;19925;-76
2022/07/11 11:17:44;;;;;;;;;;;20.40;99.90;;;;;;8369681;28;20279;-75
2022/07/11 11:21:59;;;;;;;;;;;20.50;99.90;;;;;;8371755;28;19931;-76
2022/07/11 11:26:05;;;;;;;;;;;20.60;99.90;;;;;;8368883;28;19925;-76
2022/07/11 11:30:07;;;;;;;;;;;20.60;99.90;;;;;;8387787;28;19932;-76
2022/07/11 11:34:09;;;;;;;;;;;20.70;99.90;;;;;;8372349;28;20402;-76
2022/07/11 11:38:11;;;;;;;;;;;20.70;99.90;;;;;;8370183;28;19932;-76
2022/07/11 11:42:16;;;;;;;;;;;20.70;99.90;;;;;;8360742;28;19928;-75
2022/07/11 11:46:18;;;;;;;;;;;20.70;99.90;;;;;;8370131;28;19932;-76
2022/07/11 11:50:20;;;;;;;;;;;20.80;99.90;;;;;;8366636;28;19928;-76
2022/07/11 11:54:23;;;;;;;;;;;20.80;99.90;;;;;;8370824;28;20321;-76
2022/07/11 11:58:25;;;;;;;;;;;20.90;99.90;;;;;;8360705;28;20240;-75
2022/07/11 12:02:28;;;;;;;;;;;21.00;99.90;;;;;;8357293;28;19925;-76
2022/07/11 12:06:31;;;;;;;;;;;21.10;99.90;;;;;;8358779;28;19928;-76
2022/07/11 12:10:33;;;;;;;;;;;21.20;99.90;;;;;;8358831;28;19965;-76
2022/07/11 12:14:39;;;;;;;;;;;21.20;99.90;;;;;;8357625;28;19929;-76
2022/07/11 12:18:41;;;;;;;;;;;21.20;99.90;;;;;;8361900;28;19924;-75
2022/07/11 12:22:47;;;;;;;;;;;21.30;99.90;;;;;;8363316;28;19932;-75
2022/07/11 12:26:50;;;;;;;;;;;21.30;99.90;;;;;;8369141;28;19971;-75
2022/07/11 12:30:56;;;;;;;;;;;21.30;99.90;;;;;;8365991;28;19936;-75
2022/07/11 12:34:57;;;;;;;;;;;21.30;99.90;;;;;;8369344;28;19935;-76
2022/07/11 12:39:00;;;;;;;;;;;21.40;99.90;;;;;;8383026;28;19932;-76
2022/07/11 12:44:57;;;;;;;;;;;21.40;99.90;;;;;;8364141;28;19925;-76
2022/07/11 12:47:27;;;;;;;;;;;21.50;99.90;;;;;;8365443;28;20031;-76
2022/07/11 12:51:34;;;;;;;;;;;21.50;99.90;;;;;;8366682;28;19929;-75
2022/07/11 12:55:40;;;;;;;;;;;21.50;99.90;;;;;;8368351;28;20027;-76
2022/07/11 12:59:42;;;;;;;;;;;21.70;99.90;;;;;;8364801;28;19935;-76
2022/07/11 13:03:43;;;;;;;;;;;21.80;99.90;;;;;;8366465;28;19928;-76
2022/07/11 13:12:06;;;;;;;;;;;22.00;99.90;;;;;;8369532;28;19925;-75
2022/07/11 13:16:08;;;;;;;;;;;22.20;99.90;;;;;;8371237;28;19932;-76
2022/07/11 13:20:12;;;;;;;;;;;22.20;99.90;;;;;;8374240;28;19925;-76
2022/07/11 13:24:14;;;;;;;;;;;22.20;99.90;;;;;;8373069;28;21492;-76
2022/07/11 13:28:23;;;;;;;;;;;22.30;99.90;;;;;;8393131;28;19935;-75
2022/07/11 13:32:25;;;;;;;;;;;22.30;99.90;;;;;;8366848;28;20172;-76
2022/07/11 13:36:26;;;;;;;;;;;22.30;99.90;;;;;;8362536;28;19988;-75
2022/07/11 13:40:28;;;;;;;;;;;22.30;99.90;;;;;;8371289;28;20344;-75
2022/07/11 13:44:30;;;;;;;;;;;22.40;99.90;;;;;;8370963;28;19928;-75
2022/07/11 13:48:31;;;;;;;;;;;22.40;99.90;;;;;;8372493;28;19925;-75
2022/07/11 13:52:33;;;;;;;;;;;22.50;99.90;;;;;;8367890;28;19982;-76
2022/07/11 13:56:35;;;;;;;;;;;22.50;99.90;;;;;;8367625;28;20288;-75
2022/07/11 14:00:38;;;;;;;;;;;22.60;99.90;;;;;;8366479;28;19931;-75
2022/07/11 14:04:41;;;;;;;;;;;22.60;99.90;;;;;;8371541;28;19929;-75
2022/07/11 14:08:42;;;;;;;;;;;22.70;99.90;;;;;;8366076;28;19924;-75
2022/07/11 14:12:44;;;;;;;;;;;22.70;99.90;;;;;;8371692;28;19951;-75
2022/07/11 14:16:46;;;;;;;;;;;22.60;99.90;;;;;;8370410;28;19929;-75
2022/07/11 14:20:48;;;;;;;;;;;22.70;99.90;;;;;;8371336;28;19924;-75
2022/07/11 14:24:49;;;;;;;;;;;22.60;99.90;;;;;;8373246;28;20383;-75
2022/07/11 14:28:51;;;;;;;;;;;22.70;99.90;;;;;;8372322;28;20280;-75
2022/07/11 14:32:53;;;;;;;;;;;22.70;99.90;;;;;;8370418;28;19924;-76
2022/07/11 14:36:55;;;;;;;;;;;22.90;99.90;;;;;;8367775;28;20387;-75
2022/07/11 14:40:56;;;;;;;;;;;23.00;99.90;;;;;;8374231;28;19936;-75
2022/07/11 14:44:58;;;;;;;;;;;23.10;99.90;;;;;;8373752;28;19925;-75
2022/07/11 14:49:00;;;;;;;;;;;23.20;99.90;;;;;;8367779;28;19944;-75
2022/07/11 14:53:01;;;;;;;;;;;23.30;99.90;;;;;;8367716;28;19928;-75
2022/07/11 14:57:03;;;;;;;;;;;23.30;99.90;;;;;;8371637;28;19924;-75
2022/07/11 15:01:05;;;;;;;;;;;23.50;99.90;;;;;;8368861;28;19925;-75
2022/07/11 15:05:07;;;;;;;;;;;23.60;99.90;;;;;;8367364;28;20352;-75
2022/07/11 15:13:29;;;;;;;;;;;23.70;99.90;;;;;;8361333;28;20949;-76
2022/07/11 15:17:31;;;;;;;;;;;23.60;99.90;;;;;;8355039;28;20155;-75
2022/07/11 15:21:33;;;;;;;;;;;23.60;99.90;;;;;;8347819;28;20662;-75
2022/07/11 15:25:35;;;;;;;;;;;23.60;99.90;;;;;;8351713;28;19939;-75
2022/07/11 15:29:37;;;;;;;;;;;23.60;99.90;;;;;;8337154;28;19943;-75
2022/07/11 15:33:39;;;;;;;;;;;23.60;99.90;;;;;;8341766;28;20027;-75
2022/07/11 15:37:41;;;;;;;;;;;23.80;99.90;;;;;;8345715;28;20464;-75
2022/07/11 15:41:43;;;;;;;;;;;23.80;99.90;;;;;;8349135;28;19933;-75
2022/07/11 15:45:44;;;;;;;;;;;23.90;99.90;;;;;;8341937;28;19933;-75
2022/07/11 15:49:46;;;;;;;;;;;24.00;99.90;;;;;;8329714;28;20679;-75
2022/07/11 15:53:48;;;;;;;;;;;24.00;99.90;;;;;;8355020;28;19986;-75
2022/07/11 15:57:50;;;;;;;;;;;24.20;99.90;;;;;;8370999;28;19928;-76
2022/07/11 16:01:52;;;;;;;;;;;24.50;99.90;;;;;;8362964;28;19943;-75
2022/07/11 16:05:55;;;;;;;;;;;24.90;99.90;;;;;;8367490;28;19933;-75
2022/07/11 16:09:56;;;;;;;;;;;25.10;99.90;;;;;;8365647;28;20300;-75
2022/07/11 16:13:58;;;;;;;;;;;25.30;99.90;;;;;;8374617;28;19932;-75
2022/07/11 16:18:00;;;;;;;;;;;25.70;99.90;;;;;;8373181;28;19933;-75
2022/07/11 16:22:02;;;;;;;;;;;26.10;99.90;;;;;;8369327;28;20023;-75
2022/07/11 16:26:03;;;;;;;;;;;26.40;99.90;;;;;;8372254;28;19939;-75
2022/07/11 16:30:05;;;;;;;;;;;26.50;99.90;;;;;;8372646;28;19944;-75
2022/07/11 16:34:07;;;;;;;;;;;26.50;99.90;;;;;;8381373;28;19928;-75
2022/07/11 16:38:09;;;;;;;;;;;26.60;99.90;;;;;;8374845;28;19925;-75
2022/07/11 16:46:31;;;;;;;;;;;27.00;99.90;;;;;;8372997;28;19932;-75
2022/07/11 16:50:33;;;;;;;;;;;27.20;99.90;;;;;;8361048;28;20167;-75
2022/07/11 16:54:41;;;;;;;;;;;27.40;99.90;;;;;;8370299;28;19928;-75
2022/07/11 16:58:42;;;;;;;;;;;27.50;99.90;;;;;;8370781;28;19924;-75
2022/07/11 17:02:44;;;;;;;;;;;27.70;99.90;;;;;;8372756;28;19924;-75
2022/07/11 17:06:48;;;;;;;;;;;27.70;99.90;;;;;;8374119;28;19932;-75
2022/07/11 17:10:49;;;;;;;;;;;27.70;99.90;;;;;;8371202;28;20871;-75
2022/07/11 17:14:51;;;;;;;;;;;27.60;99.90;;;;;;8371850;28;20356;-75
2022/07/11 17:18:53;;;;;;;;;;;27.40;99.90;;;;;;8368404;28;19924;-75
2022/07/11 17:22:55;;;;;;;;;;;27.10;99.90;;;;;;8388439;28;19927;-75
2022/07/11 17:26:59;;;;;;;;;;;26.70;99.90;;;;;;8371987;28;19928;-75
2022/07/11 17:31:00;;;;;;;;;;;26.40;99.90;;;;;;8366441;28;20287;-75
2022/07/11 17:35:03;;;;;;;;;;;26.10;99.90;;;;;;8344131;28;20313;-75
2022/07/11 17:39:04;;;;;;;;;;;25.70;99.90;;;;;;8357650;28;19928;-75
2022/07/11 17:43:08;;;;;;;;;;;25.50;99.90;;;;;;8364628;28;19948;-75
2022/07/11 17:47:10;;;;;;;;;;;25.30;99.90;;;;;;8362424;28;20386;-75
2022/07/11 17:51:12;;;;;;;;;;;25.10;99.90;;;;;;8353673;28;20446;-75
2022/07/11 17:55:24;;;;;;;;;;;24.90;99.90;;;;;;8355745;28;19920;-75
2022/07/11 17:59:26;;;;;;;;;;;24.80;99.90;;;;;;8354916;28;19935;-75
2022/07/11 18:03:27;;;;;;;;;;;24.60;99.90;;;;;;8350495;28;19920;-75
2022/07/11 18:07:29;;;;;;;;;;;24.50;99.90;;;;;;8363076;28;20286;-75
2022/07/11 18:11:32;;;;;;;;;;;24.40;99.90;;;;;;8359900;28;19928;-75
2022/07/11 18:15:33;;;;;;;;;;;24.30;99.90;;;;;;8357595;28;19928;-75
2022/07/11 18:19:37;;;;;;;;;;;24.20;99.90;;;;;;8359910;28;19924;-75
2022/07/11 18:23:39;;;;;;;;;;;24.20;99.90;;;;;;8365481;28;19955;-75
2022/07/11 18:27:40;;;;;;;;;;;24.10;99.90;;;;;;8363732;28;19925;-75
2022/07/11 18:31:42;;;;;;;;;;;24.10;99.90;;;;;;8361667;28;19928;-76
2022/07/11 18:35:44;;;;;;;;;;;24.00;99.90;;;;;;8358995;28;19928;-75
2022/07/11 18:44:06;;;;;;;;;;;23.80;99.90;;;;;;8320265;28;20360;-75
2022/07/11 18:48:13;;;;;;;;;;;23.70;99.90;;;;;;8338243;28;19998;-75
2022/07/11 18:52:15;;;;;;;;;;;23.60;99.90;;;;;;8366379;28;19935;-76
2022/07/11 18:56:17;;;;;;;;;;;23.50;99.90;;;;;;8358640;28;19972;-75
2022/07/11 19:00:19;;;;;;;;;;;23.40;99.90;;;;;;8366227;28;20477;-75
2022/07/11 19:04:21;;;;;;;;;;;23.30;99.90;;;;;;8354814;28;19950;-75
2022/07/11 19:08:25;;;;;;;;;;;23.20;99.90;;;;;;8359434;28;20017;-75
2022/07/11 19:12:27;;;;;;;;;;;23.10;99.90;;;;;;8359147;28;20372;-75
2022/07/11 19:16:29;;;;;;;;;;;23.00;99.90;;;;;;8357831;28;19921;-76
2022/07/11 19:20:30;;;;;;;;;;;23.00;99.90;;;;;;8359502;28;19921;-75
2022/07/11 19:24:32;;;;;;;;;;;22.90;99.90;;;;;;8358550;28;19935;-75
2022/07/11 19:28:34;;;;;;;;;;;22.80;99.90;;;;;;8358215;28;19924;-75
2022/07/11 19:32:36;;;;;;;;;;;22.80;99.90;;;;;;8343427;28;19924;-75
2022/07/11 19:36:41;;;;;;;;;;;22.70;99.90;;;;;;8370690;28;19920;-75
2022/07/11 19:40:43;;;;;;;;;;;22.60;99.90;;;;;;8368106;28;19931;-75
2022/07/11 19:44:45;;;;;;;;;;;22.50;99.90;;;;;;8360630;28;20362;-75
2022/07/11 19:48:46;;;;;;;;;;;22.40;99.90;;;;;;8356784;28;19924;-75
2022/07/11 19:52:48;;;;;;;;;;;22.30;99.90;;;;;;8359422;28;19932;-76
2022/07/11 20:01:10;;;;;;;;;;;22.10;99.90;;;;;;8355022;28;20066;-75
2022/07/11 20:05:12;;;;;;;;;;;22.00;99.90;;;;;;8356892;28;20009;-75
2022/07/11 20:09:14;;;;;;;;;;;21.90;99.90;;;;;;8355589;28;19940;-75
2022/07/11 20:13:17;;;;;;;;;;;21.80;99.90;;;;;;8360023;28;19920;-76
2022/07/11 20:17:19;;;;;;;;;;;21.80;99.90;;;;;;8355787;28;19935;-75
2022/07/11 20:21:22;;;;;;;;;;;21.70;99.90;;;;;;8356833;28;19971;-75
2022/07/11 20:25:23;;;;;;;;;;;21.70;99.90;;;;;;8354056;28;19924;-75
2022/07/11 20:29:26;;;;;;;;;;;21.60;99.90;;;;;;8376296;28;19920;-75
2022/07/11 20:33:28;;;;;;;;;;;21.60;99.90;;;;;;8356962;28;19925;-75
2022/07/11 20:37:30;;;;;;;;;;;21.50;99.90;;;;;;8370812;28;19921;-76
2022/07/11 20:41:31;;;;;;;;;;;21.40;99.90;;;;;;8353666;28;19943;-75
2022/07/11 20:45:33;;;;;;;;;;;21.30;99.90;;;;;;8353210;28;20644;-75
2022/07/11 20:49:35;;;;;;;;;;;21.20;99.90;;;;;;8364499;28;19924;-75
2022/07/11 20:53:37;;;;;;;;;;;21.10;99.90;;;;;;8366541;28;20261;-75
2022/07/11 20:57:38;;;;;;;;;;;21.10;99.90;;;;;;8359037;28;19922;-76
2022/07/11 21:01:40;;;;;;;;;;;21.00;99.90;;;;;;8358734;28;20288;-76
2022/07/11 21:05:42;;;;;;;;;;;20.90;99.90;;;;;;8385222;28;19931;-76
2022/07/11 21:09:44;;;;;;;;;;;20.80;99.90;;;;;;8383584;28;19924;-75
2022/07/11 21:13:45;;;;;;;;;;;20.70;99.90;;;;;;8384898;28;19932;-75
2022/07/11 21:17:47;;;;;;;;;;;20.70;99.90;;;;;;8387375;28;19924;-75
2022/07/11 21:21:49;;;;;;;;;;;20.60;99.90;;;;;;8383123;28;19944;-76
2022/07/11 21:25:51;;;;;;;;;;;20.50;99.90;;;;;;8386487;28;19927;-76
2022/07/11 21:29:57;;;;;;;;;;;20.50;99.90;;;;;;8369014;28;19920;-75
2022/07/11 21:33:59;;;;;;;;;;;20.40;99.90;;;;;;8392735;28;19920;-76
2022/07/11 21:38:01;;;;;;;;;;;20.40;99.90;;;;;;8375739;28;19996;-75
2022/07/11 21:42:03;;;;;;;;;;;20.40;99.90;;;;;;8386012;28;19932;-76
2022/07/11 21:46:05;;;;;;;;;;;20.30;99.90;;;;;;8396864;28;19921;-76
2022/07/11 21:50:06;;;;;;;;;;;20.20;99.90;;;;;;8379881;28;20408;-76
2022/07/11 21:54:08;;;;;;;;;;;20.10;99.90;;;;;;8398429;28;20286;-75
2022/07/11 21:58:10;;;;;;;;;;;20.00;99.90;;;;;;8397269;28;19932;-76
2022/07/11 22:02:11;;;;;;;;;;;20.00;99.90;;;;;;8380110;28;19920;-76
2022/07/11 22:06:13;;;;;;;;;;;19.90;99.90;;;;;;8371247;28;19924;-76
2022/07/11 22:10:15;;;;;;;;;;;19.80;99.90;;;;;;8381688;28;20205;-76
2022/07/11 22:14:17;;;;;;;;;;;19.80;99.90;;;;;;8388472;28;19932;-76
2022/07/11 22:18:18;;;;;;;;;;;19.70;99.90;;;;;;8377558;28;19924;-76
2022/07/11 22:22:20;;;;;;;;;;;19.70;99.90;;;;;;8381927;28;20394;-76
2022/07/11 22:26:22;;;;;;;;;;;19.70;99.90;;;;;;8381784;28;20340;-75
2022/07/11 22:30:23;;;;;;;;;;;19.60;99.90;;;;;;8385295;28;20409;-75
2022/07/11 22:34:25;;;;;;;;;;;19.50;99.90;;;;;;8378888;28;19920;-76
2022/07/11 22:38:26;;;;;;;;;;;19.40;99.90;;;;;;8391510;28;19932;-76
2022/07/11 22:42:28;;;;;;;;;;;19.40;99.90;;;;;;8391453;28;20323;-76
2022/07/11 22:46:30;;;;;;;;;;;19.30;99.90;;;;;;8383273;28;19921;-76
2022/07/11 22:50:51;;;;;;;;;;;19.30;99.90;;;;;;8380836;28;19962;-76
2022/07/11 22:54:53;;;;;;;;;;;19.20;99.90;;;;;;8380598;28;19924;-76
2022/07/11 22:58:55;;;;;;;;;;;19.10;99.90;;;;;;8375455;28;19920;-76
2022/07/11 23:02:56;;;;;;;;;;;19.00;99.90;;;;;;8381436;28;19920;-76
2022/07/11 23:06:58;;;;;;;;;;;19.00;99.90;;;;;;8380488;28;20254;-76
2022/07/11 23:11:00;;;;;;;;;;;18.90;99.90;;;;;;8387972;28;19920;-76
2022/07/11 23:15:02;;;;;;;;;;;18.90;99.90;;;;;;8374858;28;19920;-76
2022/07/11 23:19:04;;;;;;;;;;;18.80;99.90;;;;;;8384785;28;19924;-76
2022/07/11 23:23:06;;;;;;;;;;;18.80;99.90;;;;;;8384719;28;19921;-76
2022/07/11 23:27:07;;;;;;;;;;;18.70;99.90;;;;;;8384380;28;20363;-76
2022/07/11 23:31:09;;;;;;;;;;;18.60;99.90;;;;;;8386207;28;20388;-75
2022/07/11 23:35:10;;;;;;;;;;;18.60;99.90;;;;;;8378351;28;19962;-75
2022/07/11 23:39:12;;;;;;;;;;;18.50;99.90;;;;;;8372294;28;19935;-76
2022/07/11 23:43:14;;;;;;;;;;;18.50;99.90;;;;;;8378003;28;19939;-76
2022/07/11 23:47:15;;;;;;;;;;;18.40;99.90;;;;;;8383984;28;19927;-75
2022/07/11 23:51:17;;;;;;;;;;;18.40;99.90;;;;;;8378165;28;20269;-75
2022/07/11 23:55:19;;;;;;;;;;;18.30;99.90;;;;;;8382556;28;19927;-76
2022/07/11 23:59:21;;;;;;;;;;;18.20;99.90;;;;;;8376551;28;19921;-75
